PWSweather.com
Personal Weather Stations
Station Observations
RIORANCHO
Corrales Heights, Rio Rancho, NM 87124

Corrales HeightsRio Rancho, NM 87124

Lat: 35.241928, Lon: -106.647095

Elevation: 5297

Station Type: Davis Vantage Pro 2 Plus

http://www.weatherriorancho.com

Latest ConditionsUpdated 7:40:04 PM MDT Wednesday, Sep 19, 2018
Currently Today's Max Today's Min Today's Average
Temperature 68.9°F20.5°C 91.9°F33.3°C 68.8°F20.4°C 78.1°F25.6°C
Dew Point 62.1°F16.7°C 63.4°F17.4°C 42.8°F6.0°C 53.9°F12.2°C
Winds Calm Calm 12.7 mph -20.4 kmh - - 1.7 mph 2.7 kmh
Wind Gusts -- 20.7 mph33.3 kmh - -
Humidity 79% 79% 22% 46%
Pressure 29.96 in1014.6 mb 30.05 in1017.6 mb 29.89 in1012.2 mb -
Precipitation - 0.13 in3.3 mm - -
Hour Temp Dew Point Humidity Winds Wind Gusts Pressure Precip Precip Rate Daily Precip Total
07:40 PM 68.9°F20.5°C 62.1°F16.7°C 79% Calm Calm -- 29.96 in1014.6 mb - 0.02 in0.5 mm 0.13 in3.3 mm
07:30 PM 69.3°F20.7°C 62.1°F16.7°C 78% Calm Calm -- 29.97 in1014.9 mb - 0.00 in0.0 mm 0.11 in2.8 mm
07:20 PM 69.9°F21.1°C 61.3°F16.3°C 74% Calm Calm -- 29.96 in1014.6 mb - 0.02 in0.5 mm 0.11 in2.8 mm
07:10 PM 70.9°F21.6°C 62.2°F16.8°C 74% Calm Calm -- 29.96 in1014.6 mb - 0.01 in0.3 mm 0.09 in2.3 mm
07:00 PM 71.5°F21.9°C 61.6°F16.4°C 71% Calm Calm 1.2 mph1.9 kmh 29.95 in1014.2 mb - 0.00 in0.0 mm 0.08 in2.0 mm
06:50 PM 72.2°F22.3°C 61.9°F16.6°C 70% Calm Calm 2.3 mph3.7 kmh 29.95 in1014.2 mb - 0.01 in0.3 mm 0.08 in2.0 mm
06:40 PM 72.9°F22.7°C 62.2°F16.8°C 69% 1.2 mph SW1.9 kmh SW 9.2 mph14.8 kmh 29.95 in1014.2 mb - 0.00 in0.0 mm 0.07 in1.8 mm
06:30 PM 73.0°F22.8°C 63.4°F17.4°C 72% Calm Calm -- 29.94 in1013.9 mb - 0.01 in0.3 mm 0.07 in1.8 mm
06:20 PM 73.4°F23.0°C 63.4°F17.4°C 71% Calm Calm -- 29.94 in1013.9 mb - 0.04 in1.0 mm 0.06 in1.5 mm
06:10 PM 74.2°F23.4°C 60.4°F15.8°C 62% 1.2 mph SE1.9 kmh SE 1.2 mph1.9 kmh 29.94 in1013.9 mb - 0.02 in0.5 mm 0.02 in0.5 mm
06:00 PM 78.0°F25.6°C 57.8°F14.3°C 50% 3.5 mph SE5.6 kmh SE 8.1 mph13.0 kmh 29.92 in1013.2 mb - 0.01 in0.3 mm 0.01 in0.3 mm
05:50 PM 79.1°F26.2°C 52.7°F11.5°C 40% 3.5 mph ESE5.6 kmh ESE 3.5 mph5.6 kmh 29.91 in1012.9 mb - 0.00 in0.0 mm 0.00 in0.0 mm
05:40 PM 80.0°F26.7°C 53.5°F11.9°C 40% 6.9 mph E11.1 kmh E 11.5 mph18.5 kmh 29.91 in1012.9 mb - 0.00 in0.0 mm 0.00 in0.0 mm
05:30 PM 82.3°F27.9°C 54.9°F12.7°C 39% Calm Calm 1.2 mph1.9 kmh 29.91 in1012.9 mb - 0.00 in0.0 mm 0.00 in0.0 mm
05:20 PM 84.6°F29.2°C 54.7°F12.6°C 36% 3.5 mph ESE5.6 kmh ESE 3.5 mph5.6 kmh 29.92 in1013.2 mb - 0.00 in0.0 mm 0.00 in0.0 mm
05:10 PM 86.2°F30.1°C 52.0°F11.1°C 31% 1.2 mph SSW1.9 kmh SSW 3.5 mph5.6 kmh 29.89 in1012.2 mb - 0.00 in0.0 mm 0.00 in0.0 mm
05:00 PM 86.7°F30.4°C 52.4°F11.3°C 31% 4.6 mph SE7.4 kmh SE 8.1 mph13.0 kmh 29.89 in1012.2 mb - 0.00 in0.0 mm 0.00 in0.0 mm
04:50 PM 87.9°F31.1°C 52.6°F11.4°C 30% 2.3 mph SE3.7 kmh SE 4.6 mph7.4 kmh 29.89 in1012.2 mb - 0.00 in0.0 mm 0.00 in0.0 mm
04:40 PM 88.0°F31.1°C 52.7°F11.5°C 30% 2.3 mph SE3.7 kmh SE 3.5 mph5.6 kmh 29.89 in1012.2 mb - 0.00 in0.0 mm 0.00 in0.0 mm
04:30 PM 87.8°F31.0°C 52.5°F11.4°C 30% 3.5 mph ESE5.6 kmh ESE 8.1 mph13.0 kmh 29.89 in1012.2 mb - 0.00 in0.0 mm 0.00 in0.0 mm
04:20 PM 85.6°F29.8°C 51.5°F10.8°C 31% 4.6 mph ENE7.4 kmh ENE 10.4 mph16.7 kmh 29.89 in1012.2 mb - 0.00 in0.0 mm 0.00 in0.0 mm
04:10 PM 85.1°F29.5°C 50.1°F10.1°C 30% 8.1 mph E13.0 kmh E 11.5 mph18.5 kmh 29.90 in1012.5 mb - 0.00 in0.0 mm 0.00 in0.0 mm
04:00 PM 86.5°F30.3°C 51.4°F10.8°C 30% 12.7 mph E20.4 kmh E 18.4 mph29.6 kmh 29.90 in1012.5 mb - 0.00 in0.0 mm 0.00 in0.0 mm
03:50 PM 91.7°F33.2°C 52.0°F11.1°C 26% 12.7 mph E20.4 kmh E 20.7 mph33.3 kmh 29.90 in1012.5 mb - 0.00 in0.0 mm 0.00 in0.0 mm
03:40 PM 91.7°F33.2°C 48.6°F9.2°C 23% 5.8 mph ESE9.3 kmh ESE 8.1 mph13.0 kmh 29.90 in1012.5 mb - 0.00 in0.0 mm 0.00 in0.0 mm
03:30 PM 91.8°F33.2°C 47.6°F8.7°C 22% 5.8 mph ESE9.3 kmh ESE 10.4 mph16.7 kmh 29.90 in1012.5 mb - 0.00 in0.0 mm 0.00 in0.0 mm
03:20 PM 91.9°F33.3°C 48.8°F9.3°C 23% 1.2 mph ESE1.9 kmh ESE 6.9 mph11.1 kmh 29.91 in1012.9 mb - 0.00 in0.0 mm 0.00 in0.0 mm
03:10 PM 91.9°F33.3°C 48.8°F9.3°C 23% 2.3 mph ESE3.7 kmh ESE 5.8 mph9.3 kmh 29.91 in1012.9 mb - 0.00 in0.0 mm 0.00 in0.0 mm
03:00 PM 91.3°F32.9°C 50.5°F10.3°C 25% 2.3 mph E3.7 kmh E 3.5 mph5.6 kmh 29.91 in1012.9 mb - 0.00 in0.0 mm 0.00 in0.0 mm
02:50 PM 90.8°F32.7°C 49.0°F9.4°C 24% 1.2 mph SE1.9 kmh SE 4.6 mph7.4 kmh 29.92 in1013.2 mb - 0.00 in0.0 mm 0.00 in0.0 mm
02:40 PM 90.9°F32.7°C 49.1°F9.5°C 24% 3.5 mph ESE5.6 kmh ESE 4.6 mph7.4 kmh 29.92 in1013.2 mb - 0.00 in0.0 mm 0.00 in0.0 mm
02:30 PM 90.5°F32.5°C 49.9°F9.9°C 25% 2.3 mph SE3.7 kmh SE 4.6 mph7.4 kmh 29.93 in1013.5 mb - 0.00 in0.0 mm 0.00 in0.0 mm
02:20 PM 89.3°F31.8°C 48.9°F9.4°C 25% 2.3 mph SE3.7 kmh SE 4.6 mph7.4 kmh 29.93 in1013.5 mb - 0.00 in0.0 mm 0.00 in0.0 mm
02:10 PM 90.0°F32.2°C 49.5°F9.7°C 25% Calm Calm 3.5 mph5.6 kmh 29.94 in1013.9 mb - 0.00 in0.0 mm 0.00 in0.0 mm
02:00 PM 89.0°F31.7°C 50.7°F10.4°C 27% 2.3 mph SE3.7 kmh SE 10.4 mph16.7 kmh 29.95 in1014.2 mb - 0.00 in0.0 mm 0.00 in0.0 mm
01:50 PM 89.3°F31.8°C 49.9°F9.9°C 26% 1.2 mph SE1.9 kmh SE 4.6 mph7.4 kmh 29.95 in1014.2 mb - 0.00 in0.0 mm 0.00 in0.0 mm
01:40 PM 89.5°F31.9°C 50.1°F10.1°C 26% 3.5 mph S5.6 kmh S 8.1 mph13.0 kmh 29.96 in1014.6 mb - 0.00 in0.0 mm 0.00 in0.0 mm
01:30 PM 90.4°F32.4°C 50.8°F10.4°C 26% 3.5 mph ESE5.6 kmh ESE 9.2 mph14.8 kmh 29.96 in1014.6 mb - 0.00 in0.0 mm 0.00 in0.0 mm
01:20 PM 87.9°F31.1°C 51.7°F10.9°C 29% 1.2 mph SE1.9 kmh SE -- 29.97 in1014.9 mb - 0.00 in0.0 mm 0.00 in0.0 mm
01:10 PM 88.7°F31.5°C 51.4°F10.8°C 28% 1.2 mph ESE1.9 kmh ESE 1.2 mph1.9 kmh 29.97 in1014.9 mb - 0.00 in0.0 mm 0.00 in0.0 mm
01:00 PM 87.9°F31.1°C 51.7°F10.9°C 29% 2.3 mph SE3.7 kmh SE 8.1 mph13.0 kmh 29.98 in1015.2 mb - 0.00 in0.0 mm 0.00 in0.0 mm
12:50 PM 87.1°F30.6°C 51.0°F10.6°C 29% 1.2 mph E1.9 kmh E 2.3 mph3.7 kmh 29.98 in1015.2 mb - 0.00 in0.0 mm 0.00 in0.0 mm
12:40 PM 86.0°F30.0°C 52.7°F11.5°C 32% 1.2 mph SE1.9 kmh SE 3.5 mph5.6 kmh 29.99 in1015.6 mb - 0.00 in0.0 mm 0.00 in0.0 mm
12:30 PM 85.5°F29.7°C 53.2°F11.8°C 33% 3.5 mph S5.6 kmh S 4.6 mph7.4 kmh 30.00 in1015.9 mb - 0.00 in0.0 mm 0.00 in0.0 mm
12:20 PM 85.9°F29.9°C 52.6°F11.4°C 32% 2.3 mph SSW3.7 kmh SSW 3.5 mph5.6 kmh 30.00 in1015.9 mb - 0.00 in0.0 mm 0.00 in0.0 mm
12:10 PM 84.7°F29.3°C 53.2°F11.8°C 34% 4.6 mph SSW7.4 kmh SSW 5.8 mph9.3 kmh 30.01 in1016.3 mb - 0.00 in0.0 mm 0.00 in0.0 mm
12:00 PM 85.7°F29.8°C 54.1°F12.3°C 34% 1.2 mph SE1.9 kmh SE 3.5 mph5.6 kmh 30.01 in1016.3 mb - 0.00 in0.0 mm 0.00 in0.0 mm
11:50 AM 83.3°F28.5°C 56.5°F13.6°C 40% 3.5 mph SSE5.6 kmh SSE 6.9 mph11.1 kmh 30.02 in1016.6 mb - 0.00 in0.0 mm 0.00 in0.0 mm
11:40 AM 83.3°F28.5°C 56.5°F13.6°C 40% 4.6 mph SSE7.4 kmh SSE 8.1 mph13.0 kmh 30.02 in1016.6 mb - 0.00 in0.0 mm 0.00 in0.0 mm
11:30 AM 82.5°F28.1°C 57.7°F14.3°C 43% 3.5 mph SE5.6 kmh SE 6.9 mph11.1 kmh 30.02 in1016.6 mb - 0.00 in0.0 mm 0.00 in0.0 mm
11:20 AM 81.9°F27.7°C 56.5°F13.6°C 42% 2.3 mph SE3.7 kmh SE 6.9 mph11.1 kmh 30.03 in1016.9 mb - 0.00 in0.0 mm 0.00 in0.0 mm
11:10 AM 81.1°F27.3°C 58.4°F14.7°C 46% 3.5 mph SE5.6 kmh SE 8.1 mph13.0 kmh 30.03 in1016.9 mb - 0.00 in0.0 mm 0.00 in0.0 mm
11:00 AM 80.4°F26.9°C 59.4°F15.2°C 49% Calm Calm 2.3 mph3.7 kmh 30.04 in1017.3 mb - 0.00 in0.0 mm 0.00 in0.0 mm
10:50 AM 80.3°F26.8°C 59.4°F15.2°C 49% 4.6 mph ESE7.4 kmh ESE 4.6 mph7.4 kmh 30.04 in1017.3 mb - 0.00 in0.0 mm 0.00 in0.0 mm
10:40 AM 79.5°F26.4°C 59.8°F15.4°C 51% 4.6 mph SE7.4 kmh SE 9.2 mph14.8 kmh 30.04 in1017.3 mb - 0.00 in0.0 mm 0.00 in0.0 mm
10:30 AM 79.1°F26.2°C 60.5°F15.8°C 53% 2.3 mph SE3.7 kmh SE 5.8 mph9.3 kmh 30.04 in1017.3 mb - 0.00 in0.0 mm 0.00 in0.0 mm
10:20 AM 77.9°F25.5°C 60.4°F15.8°C 55% 1.2 mph SE1.9 kmh SE 6.9 mph11.1 kmh 30.04 in1017.3 mb - 0.00 in0.0 mm 0.00 in0.0 mm
10:10 AM 77.4°F25.2°C 60.5°F15.8°C 56% 3.5 mph SE5.6 kmh SE 2.3 mph3.7 kmh 30.05 in1017.6 mb - 0.00 in0.0 mm 0.00 in0.0 mm
10:00 AM 76.3°F24.6°C 60.4°F15.8°C 58% 3.5 mph S5.6 kmh S 6.9 mph11.1 kmh 30.05 in1017.6 mb - 0.00 in0.0 mm 0.00 in0.0 mm
09:50 AM 75.9°F24.4°C 60.0°F15.6°C 58% 4.6 mph ESE7.4 kmh ESE 8.1 mph13.0 kmh 30.04 in1017.3 mb - 0.00 in0.0 mm 0.00 in0.0 mm
09:40 AM 75.8°F24.3°C 60.5°F15.8°C 59% 4.6 mph SE7.4 kmh SE 11.5 mph18.5 kmh 30.04 in1017.3 mb - 0.00 in0.0 mm 0.00 in0.0 mm
09:30 AM 75.3°F24.1°C 60.5°F15.8°C 60% 5.8 mph SSE9.3 kmh SSE 6.9 mph11.1 kmh 30.04 in1017.3 mb - 0.00 in0.0 mm 0.00 in0.0 mm
09:20 AM 74.7°F23.7°C 59.9°F15.5°C 60% 4.6 mph SSE7.4 kmh SSE 5.8 mph9.3 kmh 30.04 in1017.3 mb - 0.00 in0.0 mm 0.00 in0.0 mm
09:10 AM 74.4°F23.6°C 60.1°F15.6°C 61% 5.8 mph SE9.3 kmh SE 6.9 mph11.1 kmh 30.04 in1017.3 mb - 0.00 in0.0 mm 0.00 in0.0 mm
09:00 AM 74.1°F23.4°C 59.8°F15.4°C 61% 4.6 mph SE7.4 kmh SE 5.8 mph9.3 kmh 30.04 in1017.3 mb - 0.00 in0.0 mm 0.00 in0.0 mm
08:50 AM 73.8°F23.2°C 59.5°F15.3°C 61% 2.3 mph SE3.7 kmh SE 6.9 mph11.1 kmh 30.04 in1017.3 mb - 0.00 in0.0 mm 0.00 in0.0 mm
08:40 AM 73.7°F23.2°C 58.9°F14.9°C 60% 1.2 mph SE1.9 kmh SE 3.5 mph5.6 kmh 30.04 in1017.3 mb - 0.00 in0.0 mm 0.00 in0.0 mm
08:30 AM 73.4°F23.0°C 58.6°F14.8°C 60% 1.2 mph SE1.9 kmh SE 3.5 mph5.6 kmh 30.04 in1017.3 mb - 0.00 in0.0 mm 0.00 in0.0 mm
08:20 AM 73.3°F22.9°C 57.1°F13.9°C 57% Calm Calm 3.5 mph5.6 kmh 30.04 in1017.3 mb - 0.00 in0.0 mm 0.00 in0.0 mm
08:10 AM 72.6°F22.6°C 57.4°F14.1°C 59% Calm Calm -- 30.04 in1017.3 mb - 0.00 in0.0 mm 0.00 in0.0 mm
08:00 AM 71.3°F21.8°C 58.0°F14.4°C 63% Calm Calm 1.2 mph1.9 kmh 30.04 in1017.3 mb - 0.00 in0.0 mm 0.00 in0.0 mm
07:50 AM 69.2°F20.7°C 57.8°F14.3°C 67% Calm Calm -- 30.03 in1016.9 mb - 0.00 in0.0 mm 0.00 in0.0 mm
07:40 AM 68.8°F20.4°C 57.0°F13.9°C 66% Calm Calm -- 30.03 in1016.9 mb - 0.00 in0.0 mm 0.00 in0.0 mm
07:30 AM 68.8°F20.4°C 56.6°F13.7°C 65% Calm Calm -- 30.03 in1016.9 mb - 0.00 in0.0 mm 0.00 in0.0 mm
07:20 AM 69.0°F20.6°C 56.8°F13.8°C 65% Calm Calm -- 30.03 in1016.9 mb - 0.00 in0.0 mm 0.00 in0.0 mm
07:10 AM 69.6°F20.9°C 56.9°F13.8°C 64% Calm Calm -- 30.03 in1016.9 mb - 0.00 in0.0 mm 0.00 in0.0 mm
07:00 AM 70.1°F21.2°C 56.9°F13.8°C 63% Calm Calm -- 30.02 in1016.6 mb - 0.00 in0.0 mm 0.00 in0.0 mm
06:50 AM 70.3°F21.3°C 56.7°F13.7°C 62% Calm Calm -- 30.02 in1016.6 mb - 0.00 in0.0 mm 0.00 in0.0 mm
06:40 AM 70.4°F21.3°C 56.8°F13.8°C 62% Calm Calm -- 30.02 in1016.6 mb - 0.00 in0.0 mm 0.00 in0.0 mm
06:30 AM 70.6°F21.4°C 56.5°F13.6°C 61% Calm Calm -- 30.02 in1016.6 mb - 0.00 in0.0 mm 0.00 in0.0 mm
06:20 AM 70.8°F21.6°C 56.3°F13.5°C 60% Calm Calm -- 30.02 in1016.6 mb - 0.00 in0.0 mm 0.00 in0.0 mm
06:10 AM 71.3°F21.8°C 56.7°F13.7°C 60% Calm Calm -- 30.02 in1016.6 mb - 0.00 in0.0 mm 0.00 in0.0 mm
06:00 AM 71.6°F22.0°C 56.5°F13.6°C 59% Calm Calm -- 30.02 in1016.6 mb - 0.00 in0.0 mm 0.00 in0.0 mm
05:50 AM 71.8°F22.1°C 56.7°F13.7°C 59% Calm Calm -- 30.02 in1016.6 mb - 0.00 in0.0 mm 0.00 in0.0 mm
05:40 AM 72.0°F22.2°C 56.4°F13.6°C 58% Calm Calm -- 30.02 in1016.6 mb - 0.00 in0.0 mm 0.00 in0.0 mm
05:30 AM 72.0°F22.2°C 56.4°F13.6°C 58% Calm Calm 3.5 mph5.6 kmh 30.02 in1016.6 mb - 0.00 in0.0 mm 0.00 in0.0 mm
05:20 AM 71.9°F22.2°C 56.3°F13.5°C 58% Calm Calm 3.5 mph5.6 kmh 30.02 in1016.6 mb - 0.00 in0.0 mm 0.00 in0.0 mm
05:10 AM 71.8°F22.1°C 56.2°F13.4°C 58% Calm Calm 2.3 mph3.7 kmh 30.01 in1016.3 mb - 0.00 in0.0 mm 0.00 in0.0 mm
05:00 AM 72.1°F22.3°C 56.0°F13.3°C 57% Calm Calm -- 30.01 in1016.3 mb - 0.00 in0.0 mm 0.00 in0.0 mm
04:50 AM 72.3°F22.4°C 56.7°F13.7°C 58% 1.2 mph SSE1.9 kmh SSE 3.5 mph5.6 kmh 30.01 in1016.3 mb - 0.00 in0.0 mm 0.00 in0.0 mm
04:40 AM 72.1°F22.3°C 55.5°F13.1°C 56% Calm Calm 2.3 mph3.7 kmh 30.01 in1016.3 mb - 0.00 in0.0 mm 0.00 in0.0 mm
04:30 AM 72.0°F22.2°C 53.4°F11.9°C 52% Calm Calm 1.2 mph1.9 kmh 30.01 in1016.3 mb - 0.00 in0.0 mm 0.00 in0.0 mm
04:20 AM 72.1°F22.3°C 53.5°F11.9°C 52% Calm Calm 1.2 mph1.9 kmh 30.01 in1016.3 mb - 0.00 in0.0 mm 0.00 in0.0 mm
04:10 AM 72.1°F22.3°C 51.9°F11.1°C 49% Calm Calm 3.5 mph5.6 kmh 30.01 in1016.3 mb - 0.00 in0.0 mm 0.00 in0.0 mm
04:00 AM 72.2°F22.3°C 52.0°F11.1°C 49% Calm Calm 3.5 mph5.6 kmh 30.01 in1016.3 mb - 0.00 in0.0 mm 0.00 in0.0 mm
03:50 AM 72.1°F22.3°C 50.8°F10.4°C 47% Calm Calm 3.5 mph5.6 kmh 30.01 in1016.3 mb - 0.00 in0.0 mm 0.00 in0.0 mm
03:40 AM 72.2°F22.3°C 50.3°F10.2°C 46% Calm Calm 2.3 mph3.7 kmh 30.01 in1016.3 mb - 0.00 in0.0 mm 0.00 in0.0 mm
03:30 AM 72.3°F22.4°C 50.4°F10.2°C 46% Calm Calm -- 30.01 in1016.3 mb - 0.00 in0.0 mm 0.00 in0.0 mm
03:20 AM 72.6°F22.6°C 50.7°F10.4°C 46% Calm Calm 1.2 mph1.9 kmh 30.01 in1016.3 mb - 0.00 in0.0 mm 0.00 in0.0 mm
03:10 AM 73.1°F22.8°C 50.5°F10.3°C 45% Calm Calm -- 30.01 in1016.3 mb - 0.00 in0.0 mm 0.00 in0.0 mm
03:00 AM 73.5°F23.1°C 50.2°F10.1°C 44% Calm Calm 1.2 mph1.9 kmh 30.01 in1016.3 mb - 0.00 in0.0 mm 0.00 in0.0 mm
02:50 AM 73.8°F23.2°C 49.9°F9.9°C 43% Calm Calm 3.5 mph5.6 kmh 30.01 in1016.3 mb - 0.00 in0.0 mm 0.00 in0.0 mm
02:40 AM 74.1°F23.4°C 49.5°F9.7°C 42% Calm Calm 1.2 mph1.9 kmh 30.01 in1016.3 mb - 0.00 in0.0 mm 0.00 in0.0 mm
02:30 AM 74.6°F23.7°C 49.3°F9.6°C 41% Calm Calm -- 30.01 in1016.3 mb - 0.00 in0.0 mm 0.00 in0.0 mm
02:20 AM 74.3°F23.5°C 49.1°F9.5°C 41% Calm Calm -- 30.01 in1016.3 mb - 0.00 in0.0 mm 0.00 in0.0 mm
02:10 AM 74.5°F23.6°C 48.6°F9.2°C 40% Calm Calm 1.2 mph1.9 kmh 30.01 in1016.3 mb - 0.00 in0.0 mm 0.00 in0.0 mm
02:00 AM 74.5°F23.6°C 47.9°F8.8°C 39% Calm Calm 1.2 mph1.9 kmh 30.01 in1016.3 mb - 0.00 in0.0 mm 0.00 in0.0 mm
01:50 AM 74.5°F23.6°C 47.2°F8.4°C 38% Calm Calm 2.3 mph3.7 kmh 30.01 in1016.3 mb - 0.00 in0.0 mm 0.00 in0.0 mm
01:40 AM 74.5°F23.6°C 47.2°F8.4°C 38% Calm Calm 2.3 mph3.7 kmh 30.01 in1016.3 mb - 0.00 in0.0 mm 0.00 in0.0 mm
01:30 AM 74.4°F23.6°C 45.7°F7.6°C 36% Calm Calm 1.2 mph1.9 kmh 30.01 in1016.3 mb - 0.00 in0.0 mm 0.00 in0.0 mm
01:20 AM 74.5°F23.6°C 44.3°F6.8°C 34% Calm Calm -- 30.01 in1016.3 mb - 0.00 in0.0 mm 0.00 in0.0 mm
01:10 AM 74.9°F23.8°C 43.9°F6.6°C 33% Calm Calm 1.2 mph1.9 kmh 30.01 in1016.3 mb - 0.00 in0.0 mm 0.00 in0.0 mm
01:00 AM 75.4°F24.1°C 43.5°F6.4°C 32% 1.2 mph SE1.9 kmh SE 3.5 mph5.6 kmh 30.02 in1016.6 mb - 0.00 in0.0 mm 0.00 in0.0 mm
12:50 AM 76.1°F24.5°C 43.3°F6.3°C 31% 1.2 mph SE1.9 kmh SE 2.3 mph3.7 kmh 30.02 in1016.6 mb - 0.00 in0.0 mm 0.00 in0.0 mm
12:40 AM 76.6°F24.8°C 43.7°F6.5°C 31% 1.2 mph SE1.9 kmh SE 2.3 mph3.7 kmh 30.02 in1016.6 mb - 0.00 in0.0 mm 0.00 in0.0 mm
12:30 AM 76.6°F24.8°C 42.8°F6.0°C 30% Calm Calm 2.3 mph3.7 kmh 30.01 in1016.3 mb - 0.00 in0.0 mm 0.00 in0.0 mm
12:20 AM 76.6°F24.8°C 42.8°F6.0°C 30% Calm Calm 2.3 mph3.7 kmh 30.01 in1016.3 mb - 0.00 in0.0 mm 0.00 in0.0 mm
12:10 AM 76.3°F24.6°C 43.4°F6.3°C 31% Calm Calm -- 30.01 in1016.3 mb - 0.00 in0.0 mm 0.00 in0.0 mm
12:00 AM 75.5°F24.2°C 43.6°F6.4°C 32% Calm Calm -- 30.01 in1016.3 mb - 0.00 in0.0 mm 0.00 in0.0 mm